createdAt,value
2022-11-20T00:01:36.166Z,25.87
2022-11-20T00:04:03.864Z,26.87
2022-11-20T00:06:33.074Z,28.53
2022-11-20T00:09:02.691Z,25.87
2022-11-20T00:11:32.732Z,26.97
2022-11-20T00:14:03.154Z,25.93
2022-11-20T00:16:41.198Z,24.73
2022-11-20T00:19:08.656Z,25.90
2022-11-20T00:21:37.252Z,25.10
2022-11-20T00:24:04.756Z,26.23
2022-11-20T00:26:32.205Z,25.77
2022-11-20T00:29:02.328Z,24.00
2022-11-20T00:31:31.614Z,26.33
2022-11-20T00:33:59.340Z,24.90
2022-11-20T00:36:28.749Z,26.60
2022-11-20T00:38:58.458Z,24.30
2022-11-20T00:41:29.852Z,26.93
2022-11-20T00:44:00.140Z,24.73
2022-11-20T00:46:29.382Z,25.90
2022-11-20T00:49:02.931Z,25.50
2022-11-20T00:51:37.166Z,26.27
2022-11-20T00:54:07.649Z,25.07
2022-11-20T00:56:35.005Z,25.83
2022-11-20T00:59:05.152Z,25.17
2022-11-20T01:01:33.784Z,25.20
2022-11-20T01:04:05.030Z,26.17
2022-11-20T01:06:35.755Z,25.77
2022-11-20T01:09:11.014Z,27.17
2022-11-20T01:11:40.744Z,26.27
2022-11-20T01:14:11.741Z,24.57
2022-11-20T01:16:44.623Z,25.43
2022-11-20T01:19:18.483Z,25.37
2022-11-20T01:21:48.724Z,25.30
2022-11-20T01:24:18.359Z,25.43
2022-11-20T01:26:48.911Z,28.10
2022-11-20T01:29:22.449Z,25.07
2022-11-20T01:31:50.242Z,26.10
2022-11-20T01:34:19.644Z,25.50
2022-11-20T01:36:48.451Z,25.40
2022-11-20T01:39:26.044Z,24.43
2022-11-20T01:42:13.234Z,25.70
2022-11-20T01:44:57.370Z,24.27
2022-11-20T01:47:40.660Z,24.67
2022-11-20T01:50:19.732Z,23.63
2022-11-20T01:52:52.766Z,23.87
2022-11-20T01:55:28.280Z,26.10
2022-11-20T01:57:56.370Z,25.40
2022-11-20T02:00:23.727Z,24.27
2022-11-20T02:03:00.334Z,24.30
2022-11-20T02:05:41.130Z,24.07
2022-11-20T02:08:08.761Z,23.17
2022-11-20T02:10:37.097Z,27.17
2022-11-20T02:13:24.732Z,24.53
2022-11-20T02:15:53.326Z,26.03
2022-11-20T02:18:22.598Z,25.87
2022-11-20T02:20:54.993Z,25.43
2022-11-20T02:23:29.149Z,24.37
2022-11-20T02:25:58.434Z,23.90
2022-11-20T02:28:28.137Z,24.33
2022-11-20T02:30:55.494Z,26.67
2022-11-20T02:33:22.854Z,24.80
2022-11-20T02:35:50.247Z,27.50
2022-11-20T02:38:17.835Z,28.30
2022-11-20T02:40:45.225Z,28.40
2022-11-20T02:43:12.911Z,27.10
2022-11-20T02:45:41.509Z,30.33
2022-11-20T02:48:09.508Z,28.70
2022-11-20T02:50:41.230Z,28.67
2022-11-20T02:53:09.458Z,28.07
2022-11-20T02:55:38.294Z,29.10
2022-11-20T02:58:06.447Z,31.23
2022-11-20T03:00:34.058Z,27.60
2022-11-20T03:03:01.821Z,30.07
2022-11-20T03:05:29.170Z,28.03
2022-11-20T03:07:56.553Z,30.47
2022-11-20T03:10:23.994Z,28.27
2022-11-20T03:12:57.762Z,30.93
2022-11-20T03:15:25.422Z,30.80
2022-11-20T03:17:56.832Z,29.43
2022-11-20T03:20:24.474Z,31.13
2022-11-20T03:22:54.493Z,27.87
2022-11-20T03:25:22.579Z,30.40
2022-11-20T03:27:49.892Z,31.80
2022-11-20T03:30:17.401Z,30.93
2022-11-20T03:32:45.130Z,31.00
2022-11-20T03:35:13.294Z,29.97
2022-11-20T03:37:41.342Z,30.03
2022-11-20T03:40:10.678Z,27.00
2022-11-20T03:42:49.437Z,31.57
2022-11-20T03:45:19.371Z,28.20
2022-11-20T03:47:47.535Z,28.53
2022-11-20T03:50:15.273Z,29.67
2022-11-20T03:52:42.892Z,26.93
2022-11-20T03:55:11.724Z,29.13
2022-11-20T03:57:40.273Z,28.83
2022-11-20T04:00:08.152Z,27.50
2022-11-20T04:02:35.485Z,27.63
2022-11-20T04:05:02.868Z,29.63
2022-11-20T04:07:30.250Z,27.40
2022-11-20T04:09:57.662Z,28.13
2022-11-20T04:12:25.020Z,30.77
2022-11-20T04:14:52.350Z,28.27
2022-11-20T04:17:19.698Z,30.70
2022-11-20T04:19:47.278Z,28.33
2022-11-20T04:22:14.752Z,29.10
2022-11-20T04:24:42.592Z,30.00
2022-11-20T04:27:10.288Z,31.57
2022-11-20T04:29:37.628Z,28.53
2022-11-20T04:32:05.166Z,31.20
2022-11-20T04:34:32.528Z,29.63
2022-11-20T04:36:59.877Z,29.70
2022-11-20T04:39:27.294Z,30.00
2022-11-20T04:42:14.621Z,31.37
2022-11-20T04:44:42.278Z,29.77
2022-11-20T04:47:11.381Z,32.20
2022-11-20T04:49:38.772Z,29.43
2022-11-20T04:52:07.116Z,29.60
2022-11-20T04:54:34.463Z,30.30
2022-11-20T04:57:01.806Z,29.83
2022-11-20T04:59:30.288Z,32.60
2022-11-20T05:01:58.056Z,29.73
2022-11-20T05:04:25.443Z,29.33
2022-11-20T05:06:52.790Z,30.97
2022-11-20T05:09:20.267Z,31.17
2022-11-20T05:11:51.363Z,29.50
2022-11-20T05:14:19.093Z,30.00
2022-11-20T05:16:47.283Z,30.63
2022-11-20T05:19:14.707Z,27.87
2022-11-20T05:21:42.233Z,29.77
2022-11-20T05:24:09.841Z,29.77
2022-11-20T05:26:37.217Z,30.73
2022-11-20T05:29:04.620Z,30.20
2022-11-20T05:31:31.942Z,27.97
2022-11-20T05:34:00.262Z,28.23
2022-11-20T05:36:29.184Z,33.83
2022-11-20T05:39:01.584Z,33.93
2022-11-20T05:41:30.803Z,33.83
2022-11-20T05:43:59.850Z,33.77
2022-11-20T05:46:29.060Z,29.80
2022-11-20T05:48:58.910Z,29.83
2022-11-20T05:51:28.123Z,31.00
2022-11-20T05:54:00.047Z,30.67
2022-11-20T05:56:28.476Z,30.93
2022-11-20T05:58:56.900Z,30.03
2022-11-20T06:01:26.352Z,29.97
2022-11-20T06:03:54.603Z,33.10
2022-11-20T06:06:23.347Z,29.43
2022-11-20T06:08:50.954Z,29.27
2022-11-20T06:11:19.244Z,28.50
2022-11-20T06:13:47.699Z,29.37
2022-11-20T06:16:18.555Z,30.90
2022-11-20T06:18:46.311Z,32.93
2022-11-20T06:21:19.036Z,32.90
2022-11-20T06:23:47.526Z,34.23
2022-11-20T06:26:20.127Z,32.07
2022-11-20T06:28:48.437Z,33.63
2022-11-20T06:31:18.357Z,33.27
2022-11-20T06:33:46.167Z,33.03
2022-11-20T06:36:15.642Z,36.60
2022-11-20T06:38:43.429Z,35.53
2022-11-20T06:41:22.478Z,33.90
2022-11-20T06:43:50.256Z,34.03
2022-11-20T06:46:21.931Z,36.43
2022-11-20T06:48:51.150Z,34.47
2022-11-20T06:51:18.996Z,36.73
2022-11-20T06:53:46.571Z,34.07
2022-11-20T06:56:14.256Z,34.23
2022-11-20T06:58:41.603Z,36.23
2022-11-20T07:01:12.363Z,36.53
2022-11-20T07:03:40.858Z,36.53
2022-11-20T07:06:09.065Z,33.23
2022-11-20T07:08:36.879Z,33.87
2022-11-20T07:11:07.500Z,35.63
2022-11-20T07:13:35.016Z,34.40
2022-11-20T07:16:08.708Z,33.10
2022-11-20T07:18:39.040Z,35.30
2022-11-20T07:21:08.916Z,36.97
2022-11-20T07:23:39.251Z,35.13
2022-11-20T07:26:11.589Z,34.17
2022-11-20T07:28:39.477Z,33.90
2022-11-20T07:31:08.994Z,34.47
2022-11-20T07:33:39.014Z,36.03
2022-11-20T07:36:08.796Z,32.80
2022-11-20T07:38:38.261Z,36.93
2022-11-20T07:41:05.838Z,33.53
2022-11-20T07:43:39.780Z,36.90
2022-11-20T07:46:09.726Z,37.67
2022-11-20T07:48:38.139Z,35.10
2022-11-20T07:51:05.537Z,34.20
2022-11-20T07:53:34.899Z,35.40
2022-11-20T07:56:03.608Z,37.13
2022-11-20T07:58:34.187Z,36.77
2022-11-20T08:01:08.604Z,36.37
2022-11-20T08:03:39.012Z,37.10
2022-11-20T08:06:06.891Z,34.93
2022-11-20T08:08:38.861Z,36.73
2022-11-20T08:11:29.824Z,37.27
2022-11-20T08:14:12.770Z,38.70
2022-11-20T08:16:49.665Z,35.00
2022-11-20T08:19:19.119Z,38.40
2022-11-20T08:21:46.702Z,36.03
2022-11-20T08:24:14.192Z,37.87
2022-11-20T08:26:42.259Z,36.40
2022-11-20T08:29:09.684Z,37.10
2022-11-20T08:31:37.181Z,37.03
2022-11-20T08:34:09.274Z,36.23
2022-11-20T08:36:37.880Z,33.87
2022-11-20T08:39:05.211Z,35.57
2022-11-20T08:41:38.411Z,34.17
2022-11-20T08:44:08.711Z,34.50
2022-11-20T08:46:41.016Z,34.97
2022-11-20T08:49:10.676Z,35.27
2022-11-20T08:51:41.206Z,41.00
2022-11-20T08:54:11.467Z,48.37
2022-11-20T08:56:41.201Z,41.90
2022-11-20T08:59:51.029Z,41.67
2022-11-20T09:02:00.508Z,37.23
2022-11-20T09:04:27.891Z,35.87
2022-11-20T09:06:55.227Z,36.03
2022-11-20T09:09:22.925Z,36.93
2022-11-20T09:11:51.341Z,37.83
2022-11-20T09:14:18.695Z,35.57
2022-11-20T09:16:47.479Z,31.03
2022-11-20T09:22:04.128Z,35.27
2022-11-20T09:24:31.503Z,36.57
2022-11-20T09:26:58.913Z,32.37
2022-11-20T09:29:26.233Z,36.10
2022-11-20T09:31:53.656Z,33.53
2022-11-20T09:34:20.969Z,33.77
2022-11-20T09:36:48.312Z,33.90
2022-11-20T09:39:16.245Z,33.97
2022-11-20T09:42:00.007Z,35.40
2022-11-20T09:44:27.379Z,35.27
2022-11-20T09:46:58.216Z,34.20
2022-11-20T09:50:11.010Z,35.17
2022-11-20T09:52:47.507Z,34.27
2022-11-20T09:55:16.604Z,33.07
2022-11-20T09:57:49.091Z,33.60
2022-11-20T10:00:21.420Z,31.27
2022-11-20T10:03:34.242Z,34.67
2022-11-20T10:06:06.035Z,34.77
2022-11-20T10:08:40.322Z,37.20
2022-11-20T10:11:33.828Z,36.43
2022-11-20T10:14:27.628Z,36.93
2022-11-20T10:17:09.356Z,35.17
2022-11-20T10:20:13.879Z,37.33
2022-11-20T10:23:06.369Z,36.70
2022-11-20T10:26:24.357Z,35.20
2022-11-20T10:29:06.044Z,35.03
2022-11-20T10:31:46.263Z,36.07
2022-11-20T10:34:22.603Z,35.93
2022-11-20T10:37:04.876Z,33.90
2022-11-20T10:40:40.174Z,35.93
2022-11-20T10:43:22.764Z,37.53
2022-11-20T10:46:05.255Z,36.73
2022-11-20T10:48:33.574Z,36.33
2022-11-20T10:51:23.249Z,36.13
2022-11-20T10:54:18.535Z,35.43
2022-11-20T10:56:51.240Z,33.10
2022-11-20T10:59:57.828Z,33.67
2022-11-20T11:02:33.545Z,34.90
2022-11-20T11:05:14.402Z,34.77
2022-11-20T11:07:43.177Z,38.00
2022-11-20T11:10:25.316Z,36.43
2022-11-20T11:12:54.262Z,36.00
2022-11-20T11:15:42.636Z,34.90
2022-11-20T11:18:12.594Z,36.83
2022-11-20T11:20:40.046Z,36.13
2022-11-20T11:23:42.544Z,34.23
2022-11-20T11:26:24.417Z,36.77
2022-11-20T11:29:03.759Z,36.50
2022-11-20T11:31:35.960Z,35.77
2022-11-20T11:34:13.638Z,35.17
2022-11-20T11:36:42.030Z,36.33
2022-11-20T11:39:17.758Z,32.77
2022-11-20T11:41:46.013Z,35.13
2022-11-20T11:45:04.383Z,34.67
2022-11-20T11:47:38.885Z,33.73
2022-11-20T11:50:22.607Z,34.67
2022-11-20T11:52:53.527Z,33.40
2022-11-20T11:55:44.304Z,33.27
2022-11-20T11:58:24.908Z,32.53
2022-11-20T12:01:30.175Z,33.37
2022-11-20T12:04:20.499Z,32.87
2022-11-20T12:06:52.927Z,32.07
2022-11-20T12:09:25.033Z,29.10
2022-11-20T12:12:18.779Z,29.67
2022-11-20T12:14:51.456Z,29.13
2022-11-20T12:17:19.128Z,28.43
2022-11-20T12:19:46.506Z,29.40
2022-11-20T12:22:32.799Z,30.03
2022-11-20T12:25:17.092Z,27.20
2022-11-20T12:28:12.382Z,28.30
2022-11-20T12:31:04.888Z,30.90
2022-11-20T12:34:25.090Z,29.87
2022-11-20T12:37:08.568Z,29.20
2022-11-20T12:39:44.824Z,30.80
2022-11-20T12:42:52.973Z,32.10
2022-11-20T12:45:56.538Z,31.20
2022-11-20T12:48:51.644Z,31.93
2022-11-20T12:51:56.221Z,33.90
2022-11-20T12:54:54.310Z,32.97
2022-11-20T12:57:43.948Z,31.40
2022-11-20T13:00:16.418Z,34.80
2022-11-20T13:03:27.613Z,31.10
2022-11-20T13:06:16.430Z,30.03
2022-11-20T13:08:56.550Z,30.60
2022-11-20T13:11:49.853Z,28.03
2022-11-20T13:14:40.927Z,31.03
2022-11-20T13:17:08.768Z,25.57
2022-11-20T13:19:36.994Z,26.73
2022-11-20T13:22:06.275Z,27.63
2022-11-20T13:24:34.491Z,27.67
2022-11-20T13:27:10.162Z,26.40
2022-11-20T13:29:47.212Z,26.90
2022-11-20T13:32:19.090Z,26.10
2022-11-20T13:34:55.060Z,22.50
2022-11-20T13:37:27.063Z,22.37
2022-11-20T13:40:06.196Z,23.13
2022-11-20T13:42:40.818Z,23.93
2022-11-20T13:45:33.614Z,24.57
2022-11-20T13:48:20.493Z,26.23
2022-11-20T13:50:59.702Z,27.33
2022-11-20T13:54:17.357Z,30.70
2022-11-20T13:56:54.660Z,30.00
2022-11-20T13:59:42.211Z,30.23
2022-11-20T14:02:19.598Z,29.90
2022-11-20T14:04:51.000Z,28.93
2022-11-20T14:07:21.138Z,28.03
2022-11-20T14:09:58.948Z,30.50
2022-11-20T14:12:34.580Z,28.97
2022-11-20T14:15:05.253Z,30.47
2022-11-20T14:17:34.922Z,30.03
2022-11-20T14:20:14.995Z,30.77
2022-11-20T14:22:52.975Z,27.30
2022-11-20T14:25:28.637Z,29.13
2022-11-20T14:28:04.834Z,31.17
2022-11-20T14:30:40.835Z,32.40
2022-11-20T14:33:13.655Z,29.33
2022-11-20T14:35:51.025Z,30.97
2022-11-20T14:38:23.646Z,32.10
2022-11-20T14:40:52.290Z,30.23
2022-11-20T14:43:22.627Z,31.57
2022-11-20T14:46:10.022Z,33.97
2022-11-20T14:48:38.583Z,30.37
2022-11-20T14:51:12.415Z,33.77
2022-11-20T14:53:41.353Z,31.10
2022-11-20T14:56:10.904Z,32.73
2022-11-20T14:58:40.012Z,32.23
2022-11-20T15:01:12.600Z,32.77
2022-11-20T15:03:41.983Z,32.67
2022-11-20T15:06:13.573Z,30.87
2022-11-20T15:08:52.642Z,30.63
2022-11-20T15:11:27.005Z,31.10
2022-11-20T15:13:54.699Z,32.70
2022-11-20T15:16:25.825Z,31.93
2022-11-20T15:18:53.817Z,32.93
2022-11-20T15:21:22.739Z,32.00
2022-11-20T15:23:51.072Z,32.40
2022-11-20T15:26:27.947Z,36.30
2022-11-20T15:28:56.574Z,32.07
2022-11-20T15:31:25.264Z,32.73
2022-11-20T15:33:53.103Z,33.03
2022-11-20T15:36:22.917Z,33.13
2022-11-20T15:38:51.283Z,33.17
2022-11-20T15:41:19.731Z,33.87
2022-11-20T15:43:49.646Z,32.17
2022-11-20T15:46:28.210Z,33.03
2022-11-20T15:48:58.817Z,32.23
2022-11-20T15:51:31.245Z,35.47
2022-11-20T15:54:00.365Z,33.87
2022-11-20T15:56:28.750Z,33.83
2022-11-20T15:58:56.741Z,35.97
2022-11-20T16:01:25.054Z,36.87
2022-11-20T16:03:52.725Z,37.17
2022-11-20T16:06:20.987Z,36.87
2022-11-20T16:08:49.386Z,37.40
2022-11-20T16:11:19.942Z,39.23
2022-11-20T16:14:07.231Z,40.40
2022-11-20T16:16:38.228Z,40.67
2022-11-20T16:19:07.685Z,53.43
2022-11-20T16:21:40.995Z,39.37
2022-11-20T16:24:14.675Z,42.40
2022-11-20T16:26:44.584Z,39.93
2022-11-20T16:29:17.165Z,41.00
2022-11-20T16:31:49.194Z,40.40
2022-11-20T16:34:18.356Z,39.67
2022-11-20T16:36:47.041Z,41.27
2022-11-20T16:39:22.084Z,39.90
2022-11-20T16:41:51.953Z,42.63
2022-11-20T16:44:22.166Z,38.77
2022-11-20T16:46:52.253Z,38.80
2022-11-20T16:49:26.264Z,36.43
2022-11-20T16:51:54.460Z,36.23
2022-11-20T16:54:22.822Z,33.87
2022-11-20T16:56:55.756Z,31.50
2022-11-20T16:59:24.574Z,30.87
2022-11-20T17:01:53.056Z,30.13
2022-11-20T17:04:22.958Z,30.23
2022-11-20T17:06:52.482Z,31.30
2022-11-20T17:09:20.628Z,27.67
2022-11-20T17:11:55.615Z,28.50
2022-11-20T17:14:23.909Z,29.03
2022-11-20T17:16:52.827Z,28.73
2022-11-20T17:19:24.173Z,28.60
2022-11-20T17:21:52.237Z,30.27
2022-11-20T17:24:20.813Z,31.40
2022-11-20T17:26:51.168Z,28.43
2022-11-20T17:29:25.442Z,29.10
2022-11-20T17:31:57.582Z,28.63
2022-11-20T17:34:27.987Z,29.50
2022-11-20T17:36:59.807Z,29.93
2022-11-20T17:39:28.947Z,32.27
2022-11-20T17:42:18.384Z,30.30
2022-11-20T17:44:47.847Z,27.93
2022-11-20T17:47:17.028Z,29.17
2022-11-20T17:49:45.389Z,28.03
2022-11-20T17:52:14.256Z,25.77
2022-11-20T17:54:43.678Z,27.00
2022-11-20T17:57:30.028Z,31.37
2022-11-20T17:59:58.979Z,32.40
2022-11-20T18:02:34.424Z,33.17
2022-11-20T18:05:05.707Z,33.90
2022-11-20T18:07:41.299Z,32.57
2022-11-20T18:10:10.339Z,32.20
2022-11-20T18:12:41.023Z,32.17
2022-11-20T18:15:10.859Z,33.77
2022-11-20T18:17:42.595Z,32.63
2022-11-20T18:23:00.881Z,31.17
2022-11-20T18:25:31.106Z,32.20
2022-11-20T18:28:00.339Z,30.40
2022-11-20T18:30:30.435Z,27.47
2022-11-20T18:32:58.932Z,28.13
2022-11-20T18:35:30.261Z,27.47
2022-11-20T18:37:59.627Z,28.33
2022-11-20T18:40:30.455Z,26.63
2022-11-20T18:43:21.066Z,28.30
2022-11-20T18:45:50.075Z,28.47
2022-11-20T18:48:18.200Z,29.40
2022-11-20T18:50:46.832Z,25.93
2022-11-20T18:53:20.510Z,28.33
2022-11-20T18:55:49.929Z,26.40
2022-11-20T18:58:18.619Z,27.20
2022-11-20T19:00:47.129Z,28.50
2022-11-20T19:03:15.683Z,29.10
2022-11-20T19:05:44.320Z,30.27
2022-11-20T19:08:13.889Z,31.63
2022-11-20T19:10:42.305Z,31.73
2022-11-20T19:13:12.405Z,28.40
2022-11-20T19:15:43.076Z,29.20
2022-11-20T19:18:12.477Z,27.30
2022-11-20T19:20:41.040Z,27.30
2022-11-20T19:23:09.965Z,25.37
2022-11-20T19:25:41.010Z,27.40
2022-11-20T19:28:09.695Z,25.00
2022-11-20T19:30:39.151Z,24.00
2022-11-20T19:33:09.157Z,23.70
2022-11-20T19:35:42.582Z,24.07
2022-11-20T19:38:12.498Z,25.47
2022-11-20T19:40:41.471Z,26.87
2022-11-20T19:43:12.757Z,26.90
2022-11-20T19:45:43.856Z,30.73
2022-11-20T19:48:13.483Z,28.07
2022-11-20T19:50:42.016Z,26.47
2022-11-20T19:53:11.791Z,24.10
2022-11-20T19:55:44.814Z,23.40
2022-11-20T19:58:13.773Z,22.43
2022-11-20T20:00:41.928Z,23.20
2022-11-20T20:03:11.369Z,21.60
2022-11-20T20:05:42.333Z,19.13
2022-11-20T20:08:17.095Z,20.13
2022-11-20T20:10:46.165Z,19.50
2022-11-20T20:13:14.423Z,19.23
2022-11-20T20:15:42.541Z,18.30
2022-11-20T20:18:11.699Z,20.47
2022-11-20T20:20:42.159Z,21.43
2022-11-20T20:23:12.495Z,23.07
2022-11-20T20:25:41.052Z,20.23
2022-11-20T20:28:09.343Z,24.30
2022-11-20T20:30:38.834Z,22.70
2022-11-20T20:33:08.022Z,22.20
2022-11-20T20:35:42.675Z,25.83
2022-11-20T20:38:12.048Z,26.57
2022-11-20T20:40:51.500Z,25.47
2022-11-20T20:43:23.264Z,25.70
2022-11-20T20:45:52.572Z,25.63
2022-11-20T20:48:23.443Z,20.80
2022-11-20T20:51:03.706Z,22.17
2022-11-20T20:53:32.072Z,22.97
2022-11-20T20:56:02.543Z,23.57
2022-11-20T20:58:31.368Z,24.40
2022-11-20T21:01:14.092Z,26.40
2022-11-20T21:03:42.520Z,24.40
2022-11-20T21:06:11.983Z,25.67
2022-11-20T21:08:44.973Z,25.20
2022-11-20T21:11:18.433Z,24.87
2022-11-20T21:13:47.880Z,25.43
2022-11-20T21:16:17.376Z,25.83
2022-11-20T21:18:45.416Z,24.57
2022-11-20T21:21:32.981Z,23.17
2022-11-20T21:24:00.761Z,22.27
2022-11-20T21:26:30.350Z,22.23
2022-11-20T21:28:58.814Z,21.50
2022-11-20T21:31:27.364Z,22.67
2022-11-20T21:33:57.207Z,21.63
2022-11-20T21:36:27.335Z,20.10
2022-11-20T21:38:56.150Z,20.90
2022-11-20T21:41:25.230Z,21.80
2022-11-20T21:46:46.399Z,20.30
2022-11-20T21:49:15.442Z,20.17
2022-11-20T21:51:43.207Z,20.40
2022-11-20T21:54:11.753Z,21.03
2022-11-20T21:56:42.581Z,21.47
2022-11-20T21:59:13.027Z,21.30
2022-11-20T22:01:41.889Z,20.03
2022-11-20T22:04:14.359Z,20.20
2022-11-20T22:06:41.696Z,18.87
2022-11-20T22:09:10.790Z,20.10
2022-11-20T22:11:39.283Z,20.53
2022-11-20T22:14:22.011Z,19.70
2022-11-20T22:16:51.110Z,18.70
2022-11-20T22:19:22.655Z,19.33
2022-11-20T22:21:52.869Z,19.23
2022-11-20T22:24:21.831Z,19.93
2022-11-20T22:26:50.373Z,23.00
2022-11-20T22:29:24.755Z,18.43
2022-11-20T22:31:53.670Z,19.10
2022-11-20T22:34:21.423Z,18.77
2022-11-20T22:36:49.113Z,19.13
2022-11-20T22:39:16.545Z,19.23
2022-11-20T22:41:43.959Z,17.93
2022-11-20T22:44:16.344Z,18.57
2022-11-20T22:46:43.757Z,17.77
2022-11-20T22:49:11.237Z,19.20
2022-11-20T22:51:41.289Z,18.83
2022-11-20T22:54:11.544Z,18.53
2022-11-20T22:56:39.150Z,20.77
2022-11-20T22:59:06.541Z,21.03
2022-11-20T23:01:36.756Z,26.83
2022-11-20T23:04:07.127Z,26.97
2022-11-20T23:06:34.653Z,24.60
2022-11-20T23:09:03.787Z,30.83
2022-11-20T23:11:35.241Z,31.97
2022-11-20T23:14:05.509Z,31.93
2022-11-20T23:16:33.952Z,25.07
2022-11-20T23:19:07.947Z,19.97
2022-11-20T23:21:37.238Z,16.93
2022-11-20T23:24:05.421Z,15.20
2022-11-20T23:26:35.975Z,13.50
2022-11-20T23:29:04.789Z,10.63
2022-11-20T23:31:34.236Z,9.77
2022-11-20T23:34:02.319Z,10.80
2022-11-20T23:36:33.961Z,14.60
2022-11-20T23:39:02.159Z,16.57
2022-11-20T23:41:30.161Z,16.70
2022-11-20T23:43:57.657Z,16.53
2022-11-20T23:46:27.446Z,16.73
2022-11-20T23:48:57.380Z,15.90
2022-11-20T23:51:27.321Z,16.63
2022-11-20T23:54:00.474Z,15.80
2022-11-20T23:56:31.118Z,17.27
2022-11-20T23:58:59.102Z,14.70
